sensor_id;sensor_type;location;lat;lon;timestamp;P1;durP1;ratioP1;P2;durP2;ratioP2
20531;SDS011;10424;52.102;8.084;2023-08-06T00:01:02;5.93;;;4.38;;
20531;SDS011;10424;52.102;8.084;2023-08-06T00:03:31;8.38;;;4.80;;
20531;SDS011;10424;52.102;8.084;2023-08-06T00:05:58;5.75;;;4.20;;
20531;SDS011;10424;52.102;8.084;2023-08-06T00:11:29;7.93;;;5.15;;
20531;SDS011;10424;52.102;8.084;2023-08-06T00:13:57;8.25;;;4.60;;
20531;SDS011;10424;52.102;8.084;2023-08-06T00:16:24;6.25;;;4.45;;
20531;SDS011;10424;52.102;8.084;2023-08-06T00:18:53;6.15;;;4.20;;
20531;SDS011;10424;52.102;8.084;2023-08-06T00:21:20;5.50;;;4.18;;
20531;SDS011;10424;52.102;8.084;2023-08-06T00:23:47;6.00;;;4.00;;
20531;SDS011;10424;52.102;8.084;2023-08-06T00:26:14;6.80;;;4.07;;
20531;SDS011;10424;52.102;8.084;2023-08-06T00:28:42;6.00;;;3.80;;
20531;SDS011;10424;52.102;8.084;2023-08-06T00:31:09;5.80;;;3.90;;
20531;SDS011;10424;52.102;8.084;2023-08-06T00:33:36;5.97;;;3.95;;
20531;SDS011;10424;52.102;8.084;2023-08-06T00:36:05;6.40;;;4.15;;
20531;SDS011;10424;52.102;8.084;2023-08-06T00:38:33;6.43;;;4.05;;
20531;SDS011;10424;52.102;8.084;2023-08-06T00:41:00;5.40;;;4.00;;
20531;SDS011;10424;52.102;8.084;2023-08-06T00:43:27;5.10;;;3.90;;
20531;SDS011;10424;52.102;8.084;2023-08-06T00:45:54;7.63;;;4.07;;
20531;SDS011;10424;52.102;8.084;2023-08-06T00:48:22;7.45;;;4.03;;
20531;SDS011;10424;52.102;8.084;2023-08-06T00:50:50;5.57;;;3.75;;
20531;SDS011;10424;52.102;8.084;2023-08-06T00:53:19;6.55;;;4.18;;
20531;SDS011;10424;52.102;8.084;2023-08-06T00:55:46;7.90;;;4.00;;
20531;SDS011;10424;52.102;8.084;2023-08-06T00:58:14;5.78;;;4.05;;
20531;SDS011;10424;52.102;8.084;2023-08-06T01:00:42;5.55;;;3.60;;
20531;SDS011;10424;52.102;8.084;2023-08-06T01:03:09;7.32;;;4.30;;
20531;SDS011;10424;52.102;8.084;2023-08-06T01:05:37;4.90;;;3.95;;
20531;SDS011;10424;52.102;8.084;2023-08-06T01:08:11;7.35;;;4.75;;
20531;SDS011;10424;52.102;8.084;2023-08-06T01:10:54;7.25;;;4.50;;
20531;SDS011;10424;52.102;8.084;2023-08-06T01:13:26;6.15;;;4.07;;
20531;SDS011;10424;52.102;8.084;2023-08-06T01:15:56;8.10;;;4.43;;
20531;SDS011;10424;52.102;8.084;2023-08-06T01:18:25;6.90;;;4.25;;
20531;SDS011;10424;52.102;8.084;2023-08-06T01:20:54;7.00;;;4.15;;
20531;SDS011;10424;52.102;8.084;2023-08-06T01:23:21;5.82;;;4.20;;
20531;SDS011;10424;52.102;8.084;2023-08-06T01:25:49;6.10;;;4.30;;
20531;SDS011;10424;52.102;8.084;2023-08-06T01:28:26;5.75;;;4.35;;
20531;SDS011;10424;52.102;8.084;2023-08-06T01:30:54;7.07;;;4.28;;
20531;SDS011;10424;52.102;8.084;2023-08-06T01:33:22;6.00;;;4.30;;
20531;SDS011;10424;52.102;8.084;2023-08-06T01:35:49;7.50;;;4.45;;
20531;SDS011;10424;52.102;8.084;2023-08-06T01:38:19;6.57;;;4.30;;
20531;SDS011;10424;52.102;8.084;2023-08-06T01:40:47;7.80;;;4.47;;
20531;SDS011;10424;52.102;8.084;2023-08-06T01:43:14;6.20;;;3.92;;
20531;SDS011;10424;52.102;8.084;2023-08-06T01:45:41;5.47;;;4.30;;
20531;SDS011;10424;52.102;8.084;2023-08-06T01:48:08;9.75;;;4.28;;
20531;SDS011;10424;52.102;8.084;2023-08-06T01:50:36;7.03;;;4.82;;
20531;SDS011;10424;52.102;8.084;2023-08-06T01:53:03;5.47;;;4.28;;
20531;SDS011;10424;52.102;8.084;2023-08-06T01:55:31;6.40;;;4.35;;
20531;SDS011;10424;52.102;8.084;2023-08-06T01:57:59;9.02;;;4.50;;
20531;SDS011;10424;52.102;8.084;2023-08-06T02:00:26;6.53;;;4.50;;
20531;SDS011;10424;52.102;8.084;2023-08-06T02:02:54;6.50;;;4.20;;
20531;SDS011;10424;52.102;8.084;2023-08-06T02:05:21;6.53;;;4.10;;
20531;SDS011;10424;52.102;8.084;2023-08-06T02:07:48;7.07;;;4.07;;
20531;SDS011;10424;52.102;8.084;2023-08-06T02:10:15;5.85;;;4.40;;
20531;SDS011;10424;52.102;8.084;2023-08-06T02:12:44;7.10;;;4.30;;
20531;SDS011;10424;52.102;8.084;2023-08-06T02:15:11;6.38;;;4.43;;
20531;SDS011;10424;52.102;8.084;2023-08-06T02:17:41;8.40;;;4.40;;
20531;SDS011;10424;52.102;8.084;2023-08-06T02:20:09;8.77;;;4.47;;
20531;SDS011;10424;52.102;8.084;2023-08-06T02:25:40;5.47;;;4.20;;
20531;SDS011;10424;52.102;8.084;2023-08-06T02:28:08;5.40;;;4.13;;
20531;SDS011;10424;52.102;8.084;2023-08-06T02:30:36;7.65;;;4.18;;
20531;SDS011;10424;52.102;8.084;2023-08-06T02:33:03;10.80;;;4.47;;
20531;SDS011;10424;52.102;8.084;2023-08-06T02:35:30;6.85;;;4.30;;
20531;SDS011;10424;52.102;8.084;2023-08-06T02:37:57;5.60;;;4.03;;
20531;SDS011;10424;52.102;8.084;2023-08-06T02:40:25;5.88;;;4.28;;
20531;SDS011;10424;52.102;8.084;2023-08-06T02:42:52;8.10;;;4.30;;
20531;SDS011;10424;52.102;8.084;2023-08-06T02:45:21;6.95;;;4.60;;
20531;SDS011;10424;52.102;8.084;2023-08-06T02:47:48;7.93;;;4.30;;
20531;SDS011;10424;52.102;8.084;2023-08-06T02:50:15;7.40;;;4.03;;
20531;SDS011;10424;52.102;8.084;2023-08-06T02:52:42;7.63;;;4.20;;
20531;SDS011;10424;52.102;8.084;2023-08-06T02:55:10;7.40;;;4.22;;
20531;SDS011;10424;52.102;8.084;2023-08-06T02:57:37;6.53;;;4.10;;
20531;SDS011;10424;52.102;8.084;2023-08-06T03:00:05;6.15;;;4.35;;
20531;SDS011;10424;52.102;8.084;2023-08-06T03:02:34;5.88;;;4.05;;
20531;SDS011;10424;52.102;8.084;2023-08-06T03:05:01;8.75;;;4.43;;
20531;SDS011;10424;52.102;8.084;2023-08-06T03:07:29;7.72;;;4.45;;
20531;SDS011;10424;52.102;8.084;2023-08-06T03:09:56;5.47;;;4.22;;
20531;SDS011;10424;52.102;8.084;2023-08-06T03:12:23;7.07;;;4.40;;
20531;SDS011;10424;52.102;8.084;2023-08-06T03:14:50;6.82;;;4.40;;
20531;SDS011;10424;52.102;8.084;2023-08-06T03:17:18;7.57;;;4.35;;
20531;SDS011;10424;52.102;8.084;2023-08-06T03:19:46;8.75;;;4.22;;
20531;SDS011;10424;52.102;8.084;2023-08-06T03:22:14;5.40;;;4.03;;
20531;SDS011;10424;52.102;8.084;2023-08-06T03:24:41;7.93;;;4.47;;
20531;SDS011;10424;52.102;8.084;2023-08-06T03:27:08;6.40;;;4.22;;
20531;SDS011;10424;52.102;8.084;2023-08-06T03:29:36;6.85;;;4.30;;
20531;SDS011;10424;52.102;8.084;2023-08-06T03:32:03;6.10;;;4.18;;
20531;SDS011;10424;52.102;8.084;2023-08-06T03:34:30;5.10;;;3.75;;
20531;SDS011;10424;52.102;8.084;2023-08-06T03:36:59;5.95;;;4.00;;
20531;SDS011;10424;52.102;8.084;2023-08-06T03:39:26;6.35;;;4.20;;
20531;SDS011;10424;52.102;8.084;2023-08-06T03:41:54;5.88;;;4.00;;
20531;SDS011;10424;52.102;8.084;2023-08-06T03:44:21;7.03;;;4.25;;
20531;SDS011;10424;52.102;8.084;2023-08-06T03:46:48;6.03;;;3.80;;
20531;SDS011;10424;52.102;8.084;2023-08-06T03:49:15;8.77;;;4.55;;
20531;SDS011;10424;52.102;8.084;2023-08-06T03:51:43;10.50;;;4.40;;
20531;SDS011;10424;52.102;8.084;2023-08-06T03:54:12;6.68;;;4.15;;
20531;SDS011;10424;52.102;8.084;2023-08-06T03:56:39;6.03;;;4.03;;
20531;SDS011;10424;52.102;8.084;2023-08-06T03:59:07;5.43;;;4.15;;
20531;SDS011;10424;52.102;8.084;2023-08-06T04:01:34;5.38;;;4.10;;
20531;SDS011;10424;52.102;8.084;2023-08-06T04:04:01;9.05;;;4.60;;
20531;SDS011;10424;52.102;8.084;2023-08-06T04:06:28;6.82;;;4.20;;
20531;SDS011;10424;52.102;8.084;2023-08-06T04:09:13;5.68;;;4.15;;
20531;SDS011;10424;52.102;8.084;2023-08-06T04:11:40;6.57;;;3.88;;
20531;SDS011;10424;52.102;8.084;2023-08-06T04:14:45;5.38;;;4.40;;
20531;SDS011;10424;52.102;8.084;2023-08-06T04:17:15;6.75;;;3.95;;
20531;SDS011;10424;52.102;8.084;2023-08-06T04:19:51;6.63;;;4.15;;
20531;SDS011;10424;52.102;8.084;2023-08-06T04:22:19;8.43;;;4.00;;
20531;SDS011;10424;52.102;8.084;2023-08-06T04:24:48;9.32;;;4.35;;
20531;SDS011;10424;52.102;8.084;2023-08-06T04:30:19;5.65;;;4.03;;
20531;SDS011;10424;52.102;8.084;2023-08-06T04:32:46;7.07;;;4.18;;
20531;SDS011;10424;52.102;8.084;2023-08-06T04:35:13;7.05;;;4.60;;
20531;SDS011;10424;52.102;8.084;2023-08-06T04:37:40;5.65;;;4.10;;
20531;SDS011;10424;52.102;8.084;2023-08-06T04:40:10;5.97;;;4.07;;
20531;SDS011;10424;52.102;8.084;2023-08-06T04:42:38;7.25;;;4.25;;
20531;SDS011;10424;52.102;8.084;2023-08-06T04:45:06;6.28;;;4.20;;
20531;SDS011;10424;52.102;8.084;2023-08-06T04:47:33;7.03;;;4.07;;
20531;SDS011;10424;52.102;8.084;2023-08-06T04:50:01;6.93;;;4.20;;
20531;SDS011;10424;52.102;8.084;2023-08-06T04:52:28;6.03;;;4.00;;
20531;SDS011;10424;52.102;8.084;2023-08-06T04:54:57;5.88;;;4.38;;
20531;SDS011;10424;52.102;8.084;2023-08-06T04:57:26;8.93;;;4.20;;
20531;SDS011;10424;52.102;8.084;2023-08-06T04:59:53;7.95;;;4.43;;
20531;SDS011;10424;52.102;8.084;2023-08-06T05:02:20;6.57;;;4.65;;
20531;SDS011;10424;52.102;8.084;2023-08-06T05:04:47;6.70;;;4.35;;
20531;SDS011;10424;52.102;8.084;2023-08-06T05:07:15;5.95;;;4.30;;
20531;SDS011;10424;52.102;8.084;2023-08-06T05:09:42;5.15;;;4.10;;
20531;SDS011;10424;52.102;8.084;2023-08-06T05:12:09;6.43;;;4.10;;
20531;SDS011;10424;52.102;8.084;2023-08-06T05:14:38;8.18;;;4.63;;
20531;SDS011;10424;52.102;8.084;2023-08-06T05:17:05;7.18;;;4.40;;
20531;SDS011;10424;52.102;8.084;2023-08-06T05:19:32;5.97;;;4.18;;
20531;SDS011;10424;52.102;8.084;2023-08-06T05:22:00;5.80;;;4.13;;
20531;SDS011;10424;52.102;8.084;2023-08-06T05:24:27;4.78;;;4.10;;
20531;SDS011;10424;52.102;8.084;2023-08-06T05:26:54;7.68;;;4.45;;
20531;SDS011;10424;52.102;8.084;2023-08-06T05:29:22;6.90;;;4.00;;
20531;SDS011;10424;52.102;8.084;2023-08-06T05:31:51;6.53;;;3.88;;
20531;SDS011;10424;52.102;8.084;2023-08-06T05:34:18;5.78;;;4.40;;
20531;SDS011;10424;52.102;8.084;2023-08-06T05:36:45;7.68;;;4.10;;
20531;SDS011;10424;52.102;8.084;2023-08-06T05:39:13;5.25;;;4.00;;
20531;SDS011;10424;52.102;8.084;2023-08-06T05:41:40;7.35;;;4.03;;
20531;SDS011;10424;52.102;8.084;2023-08-06T05:44:07;6.80;;;4.07;;
20531;SDS011;10424;52.102;8.084;2023-08-06T05:46:35;7.05;;;3.85;;
20531;SDS011;10424;52.102;8.084;2023-08-06T05:49:03;5.47;;;4.22;;
20531;SDS011;10424;52.102;8.084;2023-08-06T05:51:31;5.10;;;3.88;;
20531;SDS011;10424;52.102;8.084;2023-08-06T05:53:58;6.13;;;4.30;;
20531;SDS011;10424;52.102;8.084;2023-08-06T05:56:26;7.38;;;4.40;;
20531;SDS011;10424;52.102;8.084;2023-08-06T05:58:53;6.13;;;3.90;;
20531;SDS011;10424;52.102;8.084;2023-08-06T06:01:33;4.82;;;3.75;;
20531;SDS011;10424;52.102;8.084;2023-08-06T06:04:15;4.88;;;4.10;;
20531;SDS011;10424;52.102;8.084;2023-08-06T06:06:42;5.70;;;4.10;;
20531;SDS011;10424;52.102;8.084;2023-08-06T06:09:10;5.47;;;4.03;;
20531;SDS011;10424;52.102;8.084;2023-08-06T06:11:37;6.28;;;4.53;;
20531;SDS011;10424;52.102;8.084;2023-08-06T06:14:04;6.47;;;4.20;;
20531;SDS011;10424;52.102;8.084;2023-08-06T06:16:32;5.35;;;4.00;;
20531;SDS011;10424;52.102;8.084;2023-08-06T06:18:59;4.75;;;3.97;;
20531;SDS011;10424;52.102;8.084;2023-08-06T06:21:28;5.95;;;4.20;;
20531;SDS011;10424;52.102;8.084;2023-08-06T06:24:01;8.15;;;4.22;;
20531;SDS011;10424;52.102;8.084;2023-08-06T06:26:37;5.65;;;3.90;;
20531;SDS011;10424;52.102;8.084;2023-08-06T06:29:22;5.68;;;4.32;;
20531;SDS011;10424;52.102;8.084;2023-08-06T06:31:49;6.28;;;4.18;;
20531;SDS011;10424;52.102;8.084;2023-08-06T06:34:16;7.63;;;4.40;;
20531;SDS011;10424;52.102;8.084;2023-08-06T06:36:45;5.03;;;4.05;;
20531;SDS011;10424;52.102;8.084;2023-08-06T06:39:12;6.45;;;4.28;;
20531;SDS011;10424;52.102;8.084;2023-08-06T06:41:39;7.20;;;4.00;;
20531;SDS011;10424;52.102;8.084;2023-08-06T06:44:07;5.43;;;4.10;;
20531;SDS011;10424;52.102;8.084;2023-08-06T06:46:34;8.18;;;4.40;;
20531;SDS011;10424;52.102;8.084;2023-08-06T06:49:01;4.88;;;4.03;;
20531;SDS011;10424;52.102;8.084;2023-08-06T06:51:29;4.88;;;3.75;;
20531;SDS011;10424;52.102;8.084;2023-08-06T06:53:58;6.00;;;4.15;;
20531;SDS011;10424;52.102;8.084;2023-08-06T06:56:26;4.95;;;4.00;;
20531;SDS011;10424;52.102;8.084;2023-08-06T06:58:53;5.15;;;3.97;;
20531;SDS011;10424;52.102;8.084;2023-08-06T07:01:20;6.30;;;4.05;;
20531;SDS011;10424;52.102;8.084;2023-08-06T07:03:48;5.03;;;4.15;;
20531;SDS011;10424;52.102;8.084;2023-08-06T07:06:15;8.45;;;3.78;;
20531;SDS011;10424;52.102;8.084;2023-08-06T07:08:43;8.07;;;4.10;;
20531;SDS011;10424;52.102;8.084;2023-08-06T07:11:12;5.25;;;4.22;;
20531;SDS011;10424;52.102;8.084;2023-08-06T07:13:39;5.18;;;3.90;;
20531;SDS011;10424;52.102;8.084;2023-08-06T07:16:06;5.28;;;4.20;;
20531;SDS011;10424;52.102;8.084;2023-08-06T07:18:34;9.13;;;3.78;;
20531;SDS011;10424;52.102;8.084;2023-08-06T07:21:01;6.93;;;3.88;;
20531;SDS011;10424;52.102;8.084;2023-08-06T07:23:28;4.88;;;4.05;;
20531;SDS011;10424;52.102;8.084;2023-08-06T07:25:56;5.15;;;3.83;;
20531;SDS011;10424;52.102;8.084;2023-08-06T07:28:24;6.10;;;3.40;;
20531;SDS011;10424;52.102;8.084;2023-08-06T07:30:52;5.97;;;3.80;;
20531;SDS011;10424;52.102;8.084;2023-08-06T07:33:19;5.38;;;3.92;;
20531;SDS011;10424;52.102;8.084;2023-08-06T07:35:46;5.70;;;3.97;;
20531;SDS011;10424;52.102;8.084;2023-08-06T07:38:14;4.35;;;3.30;;
20531;SDS011;10424;52.102;8.084;2023-08-06T07:40:41;3.78;;;3.20;;
20531;SDS011;10424;52.102;8.084;2023-08-06T07:43:08;6.28;;;3.35;;
20531;SDS011;10424;52.102;8.084;2023-08-06T07:45:37;5.50;;;3.28;;
20531;SDS011;10424;52.102;8.084;2023-08-06T07:48:04;3.85;;;2.97;;
20531;SDS011;10424;52.102;8.084;2023-08-06T07:50:32;4.82;;;3.00;;
20531;SDS011;10424;52.102;8.084;2023-08-06T07:52:59;2.97;;;2.42;;
20531;SDS011;10424;52.102;8.084;2023-08-06T07:55:26;4.05;;;3.00;;
20531;SDS011;10424;52.102;8.084;2023-08-06T07:57:54;4.60;;;3.20;;
20531;SDS011;10424;52.102;8.084;2023-08-06T08:00:21;5.25;;;3.05;;
20531;SDS011;10424;52.102;8.084;2023-08-06T08:02:50;8.63;;;2.83;;
20531;SDS011;10424;52.102;8.084;2023-08-06T08:05:17;4.78;;;2.40;;
20531;SDS011;10424;52.102;8.084;2023-08-06T08:07:44;2.75;;;2.42;;
20531;SDS011;10424;52.102;8.084;2023-08-06T08:10:12;3.05;;;2.10;;
20531;SDS011;10424;52.102;8.084;2023-08-06T08:12:39;2.55;;;2.10;;
20531;SDS011;10424;52.102;8.084;2023-08-06T08:15:08;2.80;;;2.00;;
20531;SDS011;10424;52.102;8.084;2023-08-06T08:17:35;3.95;;;2.00;;
20531;SDS011;10424;52.102;8.084;2023-08-06T08:20:05;5.40;;;2.30;;
20531;SDS011;10424;52.102;8.084;2023-08-06T08:22:32;4.18;;;1.88;;
20531;SDS011;10424;52.102;8.084;2023-08-06T08:24:59;2.58;;;2.38;;
20531;SDS011;10424;52.102;8.084;2023-08-06T08:27:28;2.72;;;1.90;;
20531;SDS011;10424;52.102;8.084;2023-08-06T08:29:56;6.07;;;2.00;;
20531;SDS011;10424;52.102;8.084;2023-08-06T08:32:23;3.50;;;2.05;;
20531;SDS011;10424;52.102;8.084;2023-08-06T08:34:50;4.07;;;2.00;;
20531;SDS011;10424;52.102;8.084;2023-08-06T08:37:19;2.88;;;1.73;;
20531;SDS011;10424;52.102;8.084;2023-08-06T08:39:46;3.50;;;1.95;;
20531;SDS011;10424;52.102;8.084;2023-08-06T08:42:14;4.03;;;1.75;;
20531;SDS011;10424;52.102;8.084;2023-08-06T08:44:42;4.60;;;1.80;;
20531;SDS011;10424;52.102;8.084;2023-08-06T08:47:09;1.90;;;1.70;;
20531;SDS011;10424;52.102;8.084;2023-08-06T08:49:37;3.33;;;1.90;;
20531;SDS011;10424;52.102;8.084;2023-08-06T08:52:08;2.55;;;2.08;;
20531;SDS011;10424;52.102;8.084;2023-08-06T08:54:39;3.17;;;2.10;;
20531;SDS011;10424;52.102;8.084;2023-08-06T08:57:06;3.13;;;2.00;;
20531;SDS011;10424;52.102;8.084;2023-08-06T08:59:34;4.72;;;2.30;;
20531;SDS011;10424;52.102;8.084;2023-08-06T09:02:01;2.75;;;2.17;;
20531;SDS011;10424;52.102;8.084;2023-08-06T09:04:29;3.08;;;2.20;;
20531;SDS011;10424;52.102;8.084;2023-08-06T09:06:58;2.72;;;2.15;;
20531;SDS011;10424;52.102;8.084;2023-08-06T09:09:26;4.10;;;2.30;;
20531;SDS011;10424;52.102;8.084;2023-08-06T09:11:58;2.97;;;2.25;;
20531;SDS011;10424;52.102;8.084;2023-08-06T09:14:27;5.32;;;2.40;;
20531;SDS011;10424;52.102;8.084;2023-08-06T09:16:54;4.82;;;2.40;;
20531;SDS011;10424;52.102;8.084;2023-08-06T09:19:22;3.47;;;2.20;;
20531;SDS011;10424;52.102;8.084;2023-08-06T09:21:50;3.78;;;2.50;;
20531;SDS011;10424;52.102;8.084;2023-08-06T09:24:18;3.75;;;2.08;;
20531;SDS011;10424;52.102;8.084;2023-08-06T09:26:45;2.85;;;2.25;;
20531;SDS011;10424;52.102;8.084;2023-08-06T09:29:14;3.80;;;1.80;;
20531;SDS011;10424;52.102;8.084;2023-08-06T09:31:41;3.22;;;1.90;;
20531;SDS011;10424;52.102;8.084;2023-08-06T09:34:12;2.25;;;2.00;;
20531;SDS011;10424;52.102;8.084;2023-08-06T09:36:42;4.57;;;2.45;;
20531;SDS011;10424;52.102;8.084;2023-08-06T09:39:12;3.88;;;2.08;;
20531;SDS011;10424;52.102;8.084;2023-08-06T09:41:40;2.83;;;1.90;;
20531;SDS011;10424;52.102;8.084;2023-08-06T09:44:14;3.72;;;1.83;;
20531;SDS011;10424;52.102;8.084;2023-08-06T09:46:43;2.67;;;2.00;;
20531;SDS011;10424;52.102;8.084;2023-08-06T09:49:10;3.63;;;1.73;;
20531;SDS011;10424;52.102;8.084;2023-08-06T09:51:37;2.50;;;1.90;;
20531;SDS011;10424;52.102;8.084;2023-08-06T09:54:05;2.13;;;1.73;;
20531;SDS011;10424;52.102;8.084;2023-08-06T09:56:34;2.17;;;1.48;;
20531;SDS011;10424;52.102;8.084;2023-08-06T09:59:03;2.03;;;1.70;;
20531;SDS011;10424;52.102;8.084;2023-08-06T10:01:33;2.15;;;1.67;;
20531;SDS011;10424;52.102;8.084;2023-08-06T10:04:01;5.45;;;2.00;;
20531;SDS011;10424;52.102;8.084;2023-08-06T10:06:29;2.38;;;1.70;;
20531;SDS011;10424;52.102;8.084;2023-08-06T10:08:57;3.28;;;2.00;;
20531;SDS011;10424;52.102;8.084;2023-08-06T10:11:25;2.70;;;2.13;;
20531;SDS011;10424;52.102;8.084;2023-08-06T10:13:54;2.53;;;1.80;;
20531;SDS011;10424;52.102;8.084;2023-08-06T10:16:22;6.68;;;2.03;;
20531;SDS011;10424;52.102;8.084;2023-08-06T10:18:51;3.55;;;1.90;;
20531;SDS011;10424;52.102;8.084;2023-08-06T10:21:19;3.13;;;1.80;;
20531;SDS011;10424;52.102;8.084;2023-08-06T10:23:49;3.53;;;2.13;;
20531;SDS011;10424;52.102;8.084;2023-08-06T10:26:20;2.58;;;1.75;;
20531;SDS011;10424;52.102;8.084;2023-08-06T10:28:47;4.80;;;1.88;;
20531;SDS011;10424;52.102;8.084;2023-08-06T10:31:14;4.05;;;1.88;;
20531;SDS011;10424;52.102;8.084;2023-08-06T10:33:42;2.33;;;2.00;;
20531;SDS011;10424;52.102;8.084;2023-08-06T10:36:10;2.25;;;1.90;;
20531;SDS011;10424;52.102;8.084;2023-08-06T10:38:44;3.10;;;2.17;;
20531;SDS011;10424;52.102;8.084;2023-08-06T10:41:15;2.95;;;2.10;;
20531;SDS011;10424;52.102;8.084;2023-08-06T10:43:42;3.53;;;2.10;;
20531;SDS011;10424;52.102;8.084;2023-08-06T10:46:10;3.17;;;1.90;;
20531;SDS011;10424;52.102;8.084;2023-08-06T10:48:38;2.95;;;1.90;;
20531;SDS011;10424;52.102;8.084;2023-08-06T10:51:07;3.67;;;2.00;;
20531;SDS011;10424;52.102;8.084;2023-08-06T10:53:36;2.63;;;1.73;;
20531;SDS011;10424;52.102;8.084;2023-08-06T10:56:11;4.03;;;1.50;;
20531;SDS011;10424;52.102;8.084;2023-08-06T10:58:39;4.07;;;1.50;;
20531;SDS011;10424;52.102;8.084;2023-08-06T11:01:06;2.53;;;1.73;;
20531;SDS011;10424;52.102;8.084;2023-08-06T11:03:33;2.38;;;1.60;;
20531;SDS011;10424;52.102;8.084;2023-08-06T11:06:01;3.58;;;1.52;;
20531;SDS011;10424;52.102;8.084;2023-08-06T11:08:29;2.67;;;1.50;;
20531;SDS011;10424;52.102;8.084;2023-08-06T11:10:58;1.80;;;1.30;;
20531;SDS011;10424;52.102;8.084;2023-08-06T11:13:36;3.03;;;1.55;;
20531;SDS011;10424;52.102;8.084;2023-08-06T11:16:03;2.15;;;1.30;;
20531;SDS011;10424;52.102;8.084;2023-08-06T11:18:31;4.65;;;1.38;;
20531;SDS011;10424;52.102;8.084;2023-08-06T11:20:58;2.85;;;1.30;;
20531;SDS011;10424;52.102;8.084;2023-08-06T11:23:26;1.73;;;1.40;;
20531;SDS011;10424;52.102;8.084;2023-08-06T11:25:54;1.95;;;1.40;;
20531;SDS011;10424;52.102;8.084;2023-08-06T11:28:23;1.70;;;1.30;;
20531;SDS011;10424;52.102;8.084;2023-08-06T11:30:51;2.58;;;1.30;;
20531;SDS011;10424;52.102;8.084;2023-08-06T11:33:20;1.30;;;1.20;;
20531;SDS011;10424;52.102;8.084;2023-08-06T11:35:48;3.08;;;1.30;;
20531;SDS011;10424;52.102;8.084;2023-08-06T11:38:16;2.35;;;1.20;;
20531;SDS011;10424;52.102;8.084;2023-08-06T11:40:44;4.15;;;1.30;;
20531;SDS011;10424;52.102;8.084;2023-08-06T11:43:11;2.63;;;1.30;;
20531;SDS011;10424;52.102;8.084;2023-08-06T11:45:40;1.50;;;1.30;;
20531;SDS011;10424;52.102;8.084;2023-08-06T11:48:07;2.85;;;1.10;;
20531;SDS011;10424;52.102;8.084;2023-08-06T11:50:36;2.28;;;1.30;;
20531;SDS011;10424;52.102;8.084;2023-08-06T11:53:04;1.35;;;1.25;;
20531;SDS011;10424;52.102;8.084;2023-08-06T11:55:31;2.63;;;1.50;;
20531;SDS011;10424;52.102;8.084;2023-08-06T11:58:02;2.40;;;1.52;;
20531;SDS011;10424;52.102;8.084;2023-08-06T12:00:30;1.45;;;1.35;;
20531;SDS011;10424;52.102;8.084;2023-08-06T12:02:59;1.95;;;1.45;;
20531;SDS011;10424;52.102;8.084;2023-08-06T12:05:30;2.15;;;1.30;;
20531;SDS011;10424;52.102;8.084;2023-08-06T12:07:59;2.35;;;1.40;;
20531;SDS011;10424;52.102;8.084;2023-08-06T12:10:26;2.00;;;1.20;;
20531;SDS011;10424;52.102;8.084;2023-08-06T12:12:54;1.60;;;1.20;;
20531;SDS011;10424;52.102;8.084;2023-08-06T12:15:22;1.25;;;1.10;;
20531;SDS011;10424;52.102;8.084;2023-08-06T12:17:49;1.20;;;1.10;;
20531;SDS011;10424;52.102;8.084;2023-08-06T12:20:18;1.70;;;1.00;;
20531;SDS011;10424;52.102;8.084;2023-08-06T12:22:45;1.40;;;1.30;;
20531;SDS011;10424;52.102;8.084;2023-08-06T12:25:13;2.47;;;1.20;;
20531;SDS011;10424;52.102;8.084;2023-08-06T12:27:41;2.38;;;1.77;;
20531;SDS011;10424;52.102;8.084;2023-08-06T12:30:09;3.35;;;1.55;;
20531;SDS011;10424;52.102;8.084;2023-08-06T12:32:37;2.63;;;1.80;;
20531;SDS011;10424;52.102;8.084;2023-08-06T12:35:04;5.22;;;2.50;;
20531;SDS011;10424;52.102;8.084;2023-08-06T12:37:34;3.90;;;2.28;;
20531;SDS011;10424;52.102;8.084;2023-08-06T12:40:03;5.28;;;2.55;;
20531;SDS011;10424;52.102;8.084;2023-08-06T12:42:31;4.57;;;2.47;;
20531;SDS011;10424;52.102;8.084;2023-08-06T12:44:58;4.25;;;2.20;;
20531;SDS011;10424;52.102;8.084;2023-08-06T12:47:25;2.47;;;2.10;;
20531;SDS011;10424;52.102;8.084;2023-08-06T12:49:53;2.78;;;2.10;;
20531;SDS011;10424;52.102;8.084;2023-08-06T12:52:20;2.92;;;2.13;;
20531;SDS011;10424;52.102;8.084;2023-08-06T12:54:48;2.35;;;2.03;;
20531;SDS011;10424;52.102;8.084;2023-08-06T12:57:16;2.58;;;2.00;;
20531;SDS011;10424;52.102;8.084;2023-08-06T12:59:43;5.18;;;2.55;;
20531;SDS011;10424;52.102;8.084;2023-08-06T13:02:10;2.55;;;2.10;;
20531;SDS011;10424;52.102;8.084;2023-08-06T13:04:38;4.43;;;2.60;;
20531;SDS011;10424;52.102;8.084;2023-08-06T13:07:05;5.18;;;2.70;;
20531;SDS011;10424;52.102;8.084;2023-08-06T13:09:32;3.03;;;2.40;;
20531;SDS011;10424;52.102;8.084;2023-08-06T13:12:01;3.97;;;2.50;;
20531;SDS011;10424;52.102;8.084;2023-08-06T13:14:31;3.03;;;2.22;;
20531;SDS011;10424;52.102;8.084;2023-08-06T13:16:58;2.58;;;2.10;;
20531;SDS011;10424;52.102;8.084;2023-08-06T13:19:25;2.80;;;2.00;;
20531;SDS011;10424;52.102;8.084;2023-08-06T13:21:59;3.78;;;2.03;;
20531;SDS011;10424;52.102;8.084;2023-08-06T13:24:28;2.95;;;2.30;;
20531;SDS011;10424;52.102;8.084;2023-08-06T13:26:55;3.55;;;2.90;;
20531;SDS011;10424;52.102;8.084;2023-08-06T13:29:24;4.72;;;2.90;;
20531;SDS011;10424;52.102;8.084;2023-08-06T13:31:52;5.15;;;2.65;;
20531;SDS011;10424;52.102;8.084;2023-08-06T13:34:19;4.00;;;3.00;;
20531;SDS011;10424;52.102;8.084;2023-08-06T13:36:47;4.68;;;2.80;;
20531;SDS011;10424;52.102;8.084;2023-08-06T13:39:15;3.95;;;2.53;;
20531;SDS011;10424;52.102;8.084;2023-08-06T13:41:42;4.57;;;2.67;;
20531;SDS011;10424;52.102;8.084;2023-08-06T13:44:09;5.10;;;2.80;;
20531;SDS011;10424;52.102;8.084;2023-08-06T13:46:40;4.93;;;2.70;;
20531;SDS011;10424;52.102;8.084;2023-08-06T13:49:08;4.18;;;2.30;;
20531;SDS011;10424;52.102;8.084;2023-08-06T13:51:35;3.40;;;2.03;;
20531;SDS011;10424;52.102;8.084;2023-08-06T13:54:03;2.88;;;1.95;;
20531;SDS011;10424;52.102;8.084;2023-08-06T13:56:31;4.13;;;1.95;;
20531;SDS011;10424;52.102;8.084;2023-08-06T13:58:59;2.63;;;2.30;;
20531;SDS011;10424;52.102;8.084;2023-08-06T14:01:26;2.83;;;2.40;;
20531;SDS011;10424;52.102;8.084;2023-08-06T14:03:55;3.30;;;2.40;;
20531;SDS011;10424;52.102;8.084;2023-08-06T14:06:22;3.95;;;2.30;;
20531;SDS011;10424;52.102;8.084;2023-08-06T14:08:50;3.53;;;2.40;;
20531;SDS011;10424;52.102;8.084;2023-08-06T14:11:17;3.03;;;2.20;;
20531;SDS011;10424;52.102;8.084;2023-08-06T14:13:44;4.22;;;2.30;;
20531;SDS011;10424;52.102;8.084;2023-08-06T14:16:11;3.45;;;2.20;;
20531;SDS011;10424;52.102;8.084;2023-08-06T14:18:39;4.32;;;2.13;;
20531;SDS011;10424;52.102;8.084;2023-08-06T14:21:08;3.35;;;2.10;;
20531;SDS011;10424;52.102;8.084;2023-08-06T14:23:35;2.80;;;2.38;;
20531;SDS011;10424;52.102;8.084;2023-08-06T14:26:02;3.25;;;2.58;;
20531;SDS011;10424;52.102;8.084;2023-08-06T14:28:29;2.83;;;2.50;;
20531;SDS011;10424;52.102;8.084;2023-08-06T14:30:57;3.53;;;2.25;;
20531;SDS011;10424;52.102;8.084;2023-08-06T14:33:24;2.90;;;2.58;;
20531;SDS011;10424;52.102;8.084;2023-08-06T14:35:51;4.13;;;2.90;;
20531;SDS011;10424;52.102;8.084;2023-08-06T14:38:20;2.90;;;2.25;;
20531;SDS011;10424;52.102;8.084;2023-08-06T14:40:47;3.03;;;2.30;;
20531;SDS011;10424;52.102;8.084;2023-08-06T14:43:15;3.30;;;2.35;;
20531;SDS011;10424;52.102;8.084;2023-08-06T14:45:42;5.10;;;2.78;;
20531;SDS011;10424;52.102;8.084;2023-08-06T14:48:09;3.10;;;2.78;;
20531;SDS011;10424;52.102;8.084;2023-08-06T14:50:37;4.05;;;2.95;;
20531;SDS011;10424;52.102;8.084;2023-08-06T14:53:04;3.90;;;3.28;;
20531;SDS011;10424;52.102;8.084;2023-08-06T14:55:34;4.65;;;3.42;;
20531;SDS011;10424;52.102;8.084;2023-08-06T14:58:02;5.75;;;3.70;;
20531;SDS011;10424;52.102;8.084;2023-08-06T15:00:29;7.05;;;4.70;;
20531;SDS011;10424;52.102;8.084;2023-08-06T15:02:58;8.88;;;4.78;;